createdAt,value
2022-12-29T00:00:15.529Z,2.50
2022-12-29T00:03:17.229Z,2.67
2022-12-29T00:06:19.544Z,2.33
2022-12-29T00:09:21.375Z,2.40
2022-12-29T00:12:23.031Z,2.63
2022-12-29T00:15:40.315Z,2.40
2022-12-29T00:18:42.041Z,2.33
2022-12-29T00:22:02.483Z,2.40
2022-12-29T00:25:23.475Z,2.40
2022-12-29T00:28:54.513Z,3.20
2022-12-29T00:32:14.808Z,2.83
2022-12-29T00:35:30.123Z,2.67
2022-12-29T00:38:54.413Z,2.10
2022-12-29T00:42:14.736Z,2.10
2022-12-29T00:45:16.390Z,1.97
2022-12-29T00:48:39.875Z,2.00
2022-12-29T00:51:41.518Z,2.37
2022-12-29T00:54:45.972Z,1.67
2022-12-29T00:57:50.961Z,1.77
2022-12-29T01:00:52.724Z,2.00
2022-12-29T01:03:57.431Z,1.73
2022-12-29T01:07:03.874Z,1.57
2022-12-29T01:10:12.038Z,1.93
2022-12-29T01:13:13.639Z,1.50
2022-12-29T01:16:15.494Z,1.60
2022-12-29T01:19:18.564Z,1.60
2022-12-29T01:22:20.406Z,1.90
2022-12-29T01:25:24.940Z,1.93
2022-12-29T01:28:26.649Z,1.90
2022-12-29T01:31:28.420Z,1.70
2022-12-29T01:34:32.187Z,1.40
2022-12-29T01:37:34.016Z,1.40
2022-12-29T01:40:44.457Z,1.23
2022-12-29T01:43:51.367Z,1.60
2022-12-29T01:46:53.284Z,1.50
2022-12-29T01:49:58.335Z,1.40
2022-12-29T01:53:08.755Z,1.30
2022-12-29T01:56:16.175Z,1.20
2022-12-29T01:59:23.813Z,1.20
2022-12-29T02:02:25.919Z,1.17
2022-12-29T02:05:47.062Z,1.03
2022-12-29T02:08:51.704Z,1.27
2022-12-29T02:11:53.977Z,1.03
2022-12-29T02:15:01.119Z,1.10
2022-12-29T02:18:25.819Z,1.17
2022-12-29T02:21:46.452Z,1.40
2022-12-29T02:25:26.007Z,1.60
2022-12-29T02:29:09.336Z,1.23
2022-12-29T02:32:24.577Z,1.00
2022-12-29T02:35:45.285Z,1.20
2022-12-29T02:39:21.031Z,1.00
2022-12-29T02:42:49.946Z,1.47
2022-12-29T02:45:55.238Z,1.20
2022-12-29T02:49:28.662Z,1.30
2022-12-29T02:52:40.126Z,1.50
2022-12-29T02:55:49.648Z,1.53
2022-12-29T02:58:51.359Z,1.30
2022-12-29T03:02:17.925Z,1.27
2022-12-29T03:05:33.998Z,1.20
2022-12-29T03:09:19.015Z,1.30
2022-12-29T03:12:54.248Z,1.50
2022-12-29T03:16:13.107Z,1.47
2022-12-29T03:19:48.899Z,1.40
2022-12-29T03:23:01.313Z,1.40
2022-12-29T03:26:07.816Z,1.60
2022-12-29T03:29:10.586Z,1.20
2022-12-29T03:32:15.538Z,1.30
2022-12-29T03:35:21.510Z,1.53
2022-12-29T03:38:47.203Z,1.57
2022-12-29T03:41:51.884Z,1.57
2022-12-29T03:44:57.595Z,1.37
2022-12-29T03:47:59.523Z,1.30
2022-12-29T03:51:01.235Z,1.77
2022-12-29T03:54:05.932Z,1.40
2022-12-29T03:57:07.602Z,1.47
2022-12-29T04:00:11.540Z,2.10
2022-12-29T04:03:16.596Z,1.50
2022-12-29T04:06:20.131Z,1.70
2022-12-29T04:09:21.759Z,1.50
2022-12-29T04:12:23.471Z,1.90
2022-12-29T04:15:27.283Z,1.40
2022-12-29T04:18:28.983Z,1.60
2022-12-29T04:21:30.600Z,1.70
2022-12-29T04:24:32.232Z,1.37
2022-12-29T04:27:33.920Z,3.33
2022-12-29T04:30:46.136Z,1.67
2022-12-29T04:34:16.735Z,1.70
2022-12-29T04:37:20.140Z,1.70
2022-12-29T04:40:22.161Z,1.60
2022-12-29T04:43:23.857Z,1.70
2022-12-29T04:46:25.648Z,1.43
2022-12-29T04:49:27.356Z,1.53
2022-12-29T04:52:28.960Z,1.50
2022-12-29T04:55:30.699Z,1.30
2022-12-29T04:58:32.953Z,1.70
2022-12-29T05:01:35.503Z,1.23
2022-12-29T05:04:37.296Z,1.70
2022-12-29T05:07:45.573Z,1.60
2022-12-29T05:10:47.369Z,1.40
2022-12-29T05:13:49.295Z,1.53
2022-12-29T05:16:53.871Z,1.60
2022-12-29T05:19:55.799Z,1.20
2022-12-29T05:22:57.419Z,1.43
2022-12-29T05:25:59.071Z,1.60
2022-12-29T05:29:03.983Z,1.50
2022-12-29T05:32:06.096Z,1.60
2022-12-29T05:35:08.548Z,1.33
2022-12-29T05:38:10.762Z,1.40
2022-12-29T05:41:14.622Z,1.83
2022-12-29T05:44:16.281Z,1.80
2022-12-29T05:47:33.577Z,1.47
2022-12-29T05:50:35.262Z,1.47
2022-12-29T05:53:39.785Z,1.60
2022-12-29T05:56:41.692Z,1.60
2022-12-29T05:59:43.912Z,1.10
2022-12-29T06:02:45.871Z,1.20
2022-12-29T06:05:47.775Z,1.33
2022-12-29T06:08:49.533Z,1.63
2022-12-29T06:11:51.129Z,1.30
2022-12-29T06:14:52.808Z,1.27
2022-12-29T06:17:54.567Z,1.30
2022-12-29T06:21:09.747Z,1.33
2022-12-29T06:24:12.071Z,1.30
2022-12-29T06:27:14.862Z,1.60
2022-12-29T06:30:17.832Z,1.50
2022-12-29T06:33:19.631Z,1.90
2022-12-29T06:36:24.530Z,1.40
2022-12-29T06:39:28.461Z,1.80
2022-12-29T06:42:30.485Z,1.50
2022-12-29T06:45:32.328Z,1.60
2022-12-29T06:48:34.133Z,1.97
2022-12-29T06:51:35.760Z,1.40
2022-12-29T06:54:37.632Z,1.70
2022-12-29T06:57:39.478Z,1.60
2022-12-29T07:00:47.609Z,1.70
2022-12-29T07:03:49.493Z,1.97
2022-12-29T07:06:51.062Z,1.70
2022-12-29T07:09:52.773Z,2.10
2022-12-29T07:12:54.543Z,2.03
2022-12-29T07:15:56.165Z,1.80
2022-12-29T07:18:59.938Z,2.30
2022-12-29T07:22:02.138Z,1.70
2022-12-29T07:25:04.344Z,2.00
2022-12-29T07:28:06.126Z,2.33
2022-12-29T07:31:15.518Z,1.90
2022-12-29T07:34:26.472Z,2.07
2022-12-29T07:37:28.188Z,2.23
2022-12-29T07:40:32.679Z,2.10
2022-12-29T07:43:34.584Z,2.10
2022-12-29T07:46:55.434Z,1.83
2022-12-29T07:49:58.318Z,2.10
2022-12-29T07:53:00.169Z,2.50
2022-12-29T07:56:01.744Z,2.00
2022-12-29T07:59:03.621Z,2.33
2022-12-29T08:02:08.502Z,2.10
2022-12-29T08:05:16.360Z,1.97
2022-12-29T08:08:18.071Z,2.10
2022-12-29T08:11:20.028Z,2.17
2022-12-29T08:14:25.040Z,2.23
2022-12-29T08:17:26.632Z,2.03
2022-12-29T08:20:28.277Z,2.00
2022-12-29T08:23:37.518Z,1.77
2022-12-29T08:26:39.144Z,2.07
2022-12-29T08:29:40.742Z,2.50
2022-12-29T08:32:42.710Z,2.30
2022-12-29T08:35:44.583Z,2.03
2022-12-29T08:38:46.331Z,2.00
2022-12-29T08:41:48.329Z,2.27
2022-12-29T08:44:49.936Z,2.67
2022-12-29T08:47:52.027Z,2.00
2022-12-29T08:50:53.932Z,2.33
2022-12-29T08:53:55.606Z,2.60
2022-12-29T08:56:57.232Z,2.20
2022-12-29T09:00:00.517Z,2.33
2022-12-29T09:03:02.343Z,2.23
2022-12-29T09:06:04.913Z,2.20
2022-12-29T09:09:06.816Z,2.10
2022-12-29T09:12:08.530Z,2.50
2022-12-29T09:15:10.323Z,2.40
2022-12-29T09:18:17.657Z,2.87
2022-12-29T09:21:23.193Z,2.60
2022-12-29T09:24:24.773Z,2.43
2022-12-29T09:27:26.373Z,2.27
2022-12-29T09:30:28.449Z,2.30
2022-12-29T09:33:30.276Z,2.30
2022-12-29T09:36:32.062Z,2.60
2022-12-29T09:39:33.997Z,2.17
2022-12-29T09:42:56.326Z,2.33
2022-12-29T09:46:30.474Z,2.40
2022-12-29T09:49:40.732Z,2.10
2022-12-29T09:52:51.717Z,2.43
2022-12-29T09:55:56.710Z,3.83
2022-12-29T09:59:20.857Z,2.40
2022-12-29T10:02:43.557Z,2.40
2022-12-29T10:05:56.511Z,2.50
2022-12-29T10:09:02.174Z,2.80
2022-12-29T10:12:21.438Z,2.10
2022-12-29T10:15:41.635Z,2.37
2022-12-29T10:19:08.210Z,1.90
2022-12-29T10:22:47.674Z,2.83
2022-12-29T10:25:58.177Z,2.57
2022-12-29T10:29:13.105Z,1.97
2022-12-29T10:32:39.058Z,1.73
2022-12-29T10:35:44.204Z,2.30
2022-12-29T10:38:59.270Z,2.63
2022-12-29T10:42:25.274Z,2.70
2022-12-29T10:45:33.519Z,2.30
2022-12-29T10:48:36.434Z,2.50
2022-12-29T10:51:42.329Z,1.97
2022-12-29T10:54:52.352Z,3.07
2022-12-29T10:57:55.684Z,2.77
2022-12-29T11:00:57.453Z,2.90
2022-12-29T11:04:32.040Z,2.30
2022-12-29T11:07:33.771Z,1.60
2022-12-29T11:10:37.914Z,1.60
2022-12-29T11:13:57.741Z,1.57
2022-12-29T11:17:04.798Z,1.23
2022-12-29T11:20:33.375Z,1.13
2022-12-29T11:23:39.638Z,1.30
2022-12-29T11:26:44.578Z,1.10
2022-12-29T11:29:46.455Z,1.10
2022-12-29T11:32:53.421Z,1.40
2022-12-29T11:35:59.947Z,1.23
2022-12-29T11:39:02.410Z,1.20
2022-12-29T11:42:05.316Z,1.30
2022-12-29T11:45:20.421Z,1.03
2022-12-29T11:48:26.929Z,1.20
2022-12-29T11:51:47.419Z,1.10
2022-12-29T11:54:49.260Z,1.30
2022-12-29T11:57:52.776Z,1.17
2022-12-29T12:00:55.597Z,1.50
2022-12-29T12:04:07.756Z,1.10
2022-12-29T12:07:40.226Z,1.47
2022-12-29T12:10:55.551Z,1.43
2022-12-29T12:14:04.083Z,1.53
2022-12-29T12:17:13.650Z,1.40
2022-12-29T12:20:22.968Z,1.77
2022-12-29T12:23:36.623Z,1.80
2022-12-29T12:26:51.812Z,1.70
2022-12-29T12:30:06.510Z,1.50
2022-12-29T12:33:23.057Z,1.57
2022-12-29T12:36:50.619Z,1.87
2022-12-29T12:40:01.266Z,1.70
2022-12-29T12:43:12.291Z,1.23
2022-12-29T12:46:56.930Z,1.30
2022-12-29T12:50:13.364Z,1.23
2022-12-29T12:53:26.885Z,1.30
2022-12-29T12:56:59.231Z,1.40
2022-12-29T13:00:10.502Z,1.57
2022-12-29T13:03:42.442Z,1.40
2022-12-29T13:07:04.660Z,1.50
2022-12-29T13:10:24.504Z,2.00
2022-12-29T13:13:43.884Z,1.60
2022-12-29T13:17:06.449Z,1.20
2022-12-29T13:20:21.623Z,1.40
2022-12-29T13:23:41.103Z,1.50
2022-12-29T13:26:57.868Z,1.70
2022-12-29T13:30:04.630Z,1.50
2022-12-29T13:33:36.704Z,1.63
2022-12-29T13:36:52.583Z,1.40
2022-12-29T13:40:04.262Z,1.37
2022-12-29T13:43:06.949Z,1.80
2022-12-29T13:46:14.639Z,1.77
2022-12-29T13:49:21.065Z,2.63
2022-12-29T13:52:46.148Z,1.40
2022-12-29T13:56:11.832Z,1.43
2022-12-29T13:59:41.492Z,1.37
2022-12-29T14:02:46.327Z,1.30
2022-12-29T14:06:17.863Z,1.60
2022-12-29T14:09:43.957Z,1.40
2022-12-29T14:12:45.884Z,1.57
2022-12-29T14:15:59.649Z,1.40
2022-12-29T14:19:42.192Z,1.20
2022-12-29T14:23:10.030Z,1.80
2022-12-29T14:26:19.259Z,1.70
2022-12-29T14:29:29.660Z,1.10
2022-12-29T14:32:31.227Z,1.40
2022-12-29T14:35:44.208Z,1.20
2022-12-29T14:38:47.043Z,1.10
2022-12-29T14:41:48.680Z,1.10
2022-12-29T14:44:51.776Z,1.30
2022-12-29T14:47:54.587Z,1.10
2022-12-29T14:50:59.607Z,1.00
2022-12-29T14:54:01.455Z,1.30
2022-12-29T14:57:11.750Z,1.47
2022-12-29T15:00:19.120Z,1.20
2022-12-29T15:03:22.913Z,1.40
2022-12-29T15:06:28.720Z,1.37
2022-12-29T15:09:37.212Z,1.20
2022-12-29T15:12:48.483Z,1.20
2022-12-29T15:15:50.242Z,1.40
2022-12-29T15:18:52.422Z,1.17
2022-12-29T15:21:55.811Z,1.17
2022-12-29T15:24:58.320Z,1.17
2022-12-29T15:28:05.788Z,1.37
2022-12-29T15:31:16.516Z,1.50
2022-12-29T15:34:22.098Z,1.20
2022-12-29T15:37:26.755Z,1.80
2022-12-29T15:40:30.991Z,1.00
2022-12-29T15:43:58.819Z,2.10
2022-12-29T15:47:30.425Z,1.67
2022-12-29T15:50:38.087Z,1.60
2022-12-29T15:53:39.954Z,1.57
2022-12-29T15:56:42.414Z,1.30
2022-12-29T15:59:49.030Z,1.33
2022-12-29T16:02:50.974Z,1.10
2022-12-29T16:05:58.638Z,1.10
2022-12-29T16:09:45.397Z,1.40
2022-12-29T16:12:48.197Z,1.40
2022-12-29T16:15:53.281Z,1.20
2022-12-29T16:18:58.087Z,1.00
2022-12-29T16:22:01.601Z,1.10
2022-12-29T16:25:20.665Z,1.20
2022-12-29T16:28:36.172Z,1.00
2022-12-29T16:31:52.043Z,1.27
2022-12-29T16:35:14.063Z,1.30
2022-12-29T16:38:22.407Z,1.27
2022-12-29T16:41:32.009Z,1.90
2022-12-29T16:44:33.558Z,1.37
2022-12-29T16:47:35.221Z,1.30
2022-12-29T16:50:39.913Z,1.50
2022-12-29T16:53:48.023Z,1.00
2022-12-29T16:56:50.363Z,1.00
2022-12-29T16:59:53.951Z,2.00
2022-12-29T17:03:00.967Z,1.50
2022-12-29T17:06:03.571Z,1.90
2022-12-29T17:09:26.736Z,1.37
2022-12-29T17:12:30.892Z,2.10
2022-12-29T17:15:35.136Z,1.30
2022-12-29T17:18:37.307Z,1.67
2022-12-29T17:21:40.813Z,1.53
2022-12-29T17:24:42.572Z,1.57
2022-12-29T17:27:47.385Z,1.60
2022-12-29T17:30:49.883Z,1.57
2022-12-29T17:33:53.198Z,1.30
2022-12-29T17:36:55.025Z,1.80
2022-12-29T17:39:56.662Z,2.43
2022-12-29T17:42:59.568Z,1.60
2022-12-29T17:46:01.424Z,1.90
2022-12-29T17:49:03.796Z,1.60
2022-12-29T17:52:05.785Z,2.00
2022-12-29T17:55:15.170Z,1.43
2022-12-29T17:58:23.520Z,2.30
2022-12-29T18:01:31.060Z,1.77
2022-12-29T18:04:35.830Z,1.70
2022-12-29T18:07:37.563Z,2.03
2022-12-29T18:10:40.023Z,1.80
2022-12-29T18:13:46.383Z,1.57
2022-12-29T18:16:48.918Z,2.03
2022-12-29T18:19:55.246Z,2.00
2022-12-29T18:23:04.269Z,1.70
2022-12-29T18:26:12.574Z,2.30
2022-12-29T18:29:14.698Z,2.23
2022-12-29T18:32:17.897Z,1.90
2022-12-29T18:35:27.867Z,2.17
2022-12-29T18:38:30.780Z,2.13
2022-12-29T18:41:32.700Z,2.70
2022-12-29T18:44:34.731Z,2.80
2022-12-29T18:47:36.662Z,1.70
2022-12-29T18:50:40.982Z,2.13
2022-12-29T18:53:43.123Z,2.30
2022-12-29T18:56:44.891Z,1.83
2022-12-29T18:59:46.597Z,1.77
2022-12-29T19:02:49.504Z,2.50
2022-12-29T19:05:51.594Z,2.20
2022-12-29T19:08:53.354Z,2.17
2022-12-29T19:11:55.091Z,2.20
2022-12-29T19:14:56.744Z,2.03
2022-12-29T19:18:42.477Z,2.37
2022-12-29T19:21:27.522Z,2.60
2022-12-29T19:24:29.448Z,3.10
2022-12-29T19:27:33.377Z,2.20
2022-12-29T19:30:36.281Z,2.17
2022-12-29T19:33:37.911Z,1.80
2022-12-29T19:36:39.534Z,2.60
2022-12-29T19:39:41.213Z,1.90
2022-12-29T19:42:43.097Z,2.17
2022-12-29T19:45:45.505Z,2.40
2022-12-29T19:48:47.257Z,2.10
2022-12-29T19:51:48.893Z,2.70
2022-12-29T19:54:50.774Z,4.50
2022-12-29T19:57:52.482Z,4.20
2022-12-29T20:00:54.216Z,2.33
2022-12-29T20:03:55.983Z,2.37
2022-12-29T20:06:57.608Z,2.50
2022-12-29T20:09:59.226Z,3.10
2022-12-29T20:13:00.930Z,2.70
2022-12-29T20:16:05.160Z,2.43
2022-12-29T20:19:06.760Z,2.37
2022-12-29T20:22:09.287Z,4.10
2022-12-29T20:25:43.837Z,2.90
2022-12-29T20:28:32.849Z,2.60
2022-12-29T20:31:37.680Z,3.00
2022-12-29T20:34:40.060Z,2.80
2022-12-29T20:37:41.812Z,3.17
2022-12-29T20:40:46.982Z,2.97
2022-12-29T20:43:49.576Z,3.10
2022-12-29T20:46:51.333Z,2.97
2022-12-29T20:49:53.491Z,2.90
2022-12-29T20:52:55.133Z,3.13
2022-12-29T20:56:05.370Z,4.27
2022-12-29T21:02:32.149Z,3.20
2022-12-29T21:05:37.349Z,3.33
2022-12-29T21:08:39.656Z,3.23
2022-12-29T21:11:41.437Z,3.83
2022-12-29T21:14:45.787Z,3.10
2022-12-29T21:17:47.831Z,2.80
2022-12-29T21:20:57.237Z,2.93
2022-12-29T21:24:05.420Z,3.23
2022-12-29T21:27:07.421Z,2.60
2022-12-29T21:30:09.897Z,2.40
2022-12-29T21:33:11.579Z,2.63
2022-12-29T21:36:13.271Z,3.10
2022-12-29T21:39:16.373Z,2.77
2022-12-29T21:42:18.461Z,2.90
2022-12-29T21:45:26.174Z,2.77
2022-12-29T21:48:29.963Z,2.07
2022-12-29T21:51:49.927Z,4.63
2022-12-29T21:55:00.364Z,3.20
2022-12-29T21:58:20.617Z,3.00
2022-12-29T22:01:41.702Z,3.03
2022-12-29T22:05:02.599Z,3.23
2022-12-29T22:08:30.114Z,3.37
2022-12-29T22:11:50.606Z,3.20
2022-12-29T22:14:52.314Z,3.70
2022-12-29T22:18:00.470Z,3.70
2022-12-29T22:21:10.131Z,3.83
2022-12-29T22:24:11.937Z,6.30
2022-12-29T22:27:13.740Z,3.80
2022-12-29T22:30:18.215Z,3.40
2022-12-29T22:33:19.983Z,3.47
2022-12-29T22:36:21.910Z,4.07
2022-12-29T22:39:23.578Z,3.20
2022-12-29T22:42:25.371Z,3.57
2022-12-29T22:45:29.667Z,3.33
2022-12-29T22:48:33.070Z,2.93
2022-12-29T22:51:34.824Z,2.40
2022-12-29T22:54:36.518Z,2.23
2022-12-29T22:57:38.337Z,2.50
2022-12-29T23:00:39.998Z,2.43
2022-12-29T23:03:42.556Z,2.37
2022-12-29T23:06:44.353Z,2.40
2022-12-29T23:09:46.211Z,2.37
2022-12-29T23:12:47.946Z,1.77
2022-12-29T23:15:49.620Z,2.73
2022-12-29T23:18:53.558Z,2.40
2022-12-29T23:21:55.136Z,2.20
2022-12-29T23:24:56.990Z,2.13
2022-12-29T23:27:58.618Z,2.43
2022-12-29T23:31:00.395Z,2.30
2022-12-29T23:34:07.164Z,2.13
2022-12-29T23:37:08.795Z,1.80
2022-12-29T23:40:13.510Z,2.30
2022-12-29T23:43:15.399Z,3.00
2022-12-29T23:46:20.805Z,1.80
2022-12-29T23:49:22.950Z,1.97
2022-12-29T23:52:24.602Z,3.30
2022-12-29T23:55:26.201Z,2.27
2022-12-29T23:58:32.043Z,3.03
